createdAt,value
2023-05-12T00:00:32.188Z,94536.00
2023-05-12T00:01:32.205Z,94528.00
2023-05-12T00:02:32.243Z,94530.00
2023-05-12T00:03:32.452Z,94530.00
2023-05-12T00:04:32.251Z,94532.00
2023-05-12T00:05:32.228Z,94532.00
2023-05-12T00:06:32.240Z,94532.00
2023-05-12T00:07:32.196Z,94534.00
2023-05-12T00:08:32.271Z,94532.00
2023-05-12T00:09:32.190Z,94532.00
2023-05-12T00:10:32.215Z,94530.00
2023-05-12T00:11:32.187Z,94532.00
2023-05-12T00:12:32.205Z,94532.00
2023-05-12T00:13:32.258Z,94530.00
2023-05-12T00:14:32.244Z,94530.00
2023-05-12T00:15:32.289Z,94530.00
2023-05-12T00:16:32.340Z,94530.00
2023-05-12T00:17:32.337Z,94524.00
2023-05-12T00:18:32.545Z,94528.00
2023-05-12T00:19:32.327Z,94526.00
2023-05-12T00:20:32.313Z,94528.00
2023-05-12T00:21:32.347Z,94530.00
2023-05-12T00:22:32.350Z,94530.00
2023-05-12T00:23:32.345Z,94528.00
2023-05-12T00:24:32.305Z,94528.00
2023-05-12T00:25:32.320Z,94530.00
2023-05-12T00:26:32.318Z,94530.00
2023-05-12T00:27:32.310Z,94530.00
2023-05-12T00:28:32.271Z,94534.00
2023-05-12T00:29:32.286Z,94534.00
2023-05-12T00:30:32.311Z,94532.00
2023-05-12T00:31:32.325Z,94532.00
2023-05-12T00:32:32.411Z,94534.00
2023-05-12T00:33:32.266Z,94534.00
2023-05-12T00:34:32.256Z,94536.00
2023-05-12T00:35:32.273Z,94534.00
2023-05-12T00:36:32.288Z,94536.00
2023-05-12T00:37:32.261Z,94534.00
2023-05-12T00:38:32.246Z,94534.00
2023-05-12T00:39:32.216Z,94532.00
2023-05-12T00:40:32.264Z,94532.00
2023-05-12T00:41:32.228Z,94532.00
2023-05-12T00:42:32.282Z,94530.00
2023-05-12T00:43:32.283Z,94532.00
2023-05-12T00:44:32.245Z,94526.00
2023-05-12T00:45:32.284Z,94526.00
2023-05-12T00:46:32.277Z,94528.00
2023-05-12T00:47:32.341Z,94526.00
2023-05-12T00:48:32.331Z,94526.00
2023-05-12T00:49:32.257Z,94526.00
2023-05-12T00:50:32.281Z,94526.00
2023-05-12T00:51:32.248Z,94528.00
2023-05-12T00:52:32.282Z,94528.00
2023-05-12T00:53:41.369Z,94526.00
2023-05-12T00:54:33.283Z,94526.00
2023-05-12T00:55:32.255Z,94524.00
2023-05-12T00:56:32.227Z,94524.00
2023-05-12T00:57:32.277Z,94522.00
2023-05-12T00:58:32.218Z,94522.00
2023-05-12T00:59:32.216Z,94520.00
2023-05-12T01:00:32.205Z,94518.00
2023-05-12T01:01:32.250Z,94516.00
2023-05-12T01:02:32.284Z,94516.00
2023-05-12T01:03:32.247Z,94516.00
2023-05-12T01:04:32.227Z,94518.00
2023-05-12T01:05:32.183Z,94518.00
2023-05-12T01:06:32.154Z,94516.00
2023-05-12T01:07:32.209Z,94516.00
2023-05-12T01:08:32.154Z,94516.00
2023-05-12T01:09:32.167Z,94514.00
2023-05-12T01:10:32.176Z,94514.00
2023-05-12T01:11:32.157Z,94512.00
2023-05-12T01:12:32.148Z,94514.00
2023-05-12T01:13:32.139Z,94512.00
2023-05-12T01:14:32.151Z,94512.00
2023-05-12T01:15:32.092Z,94512.00
2023-05-12T01:16:32.100Z,94514.00
2023-05-12T01:17:32.246Z,94512.00
2023-05-12T01:18:32.147Z,94512.00
2023-05-12T01:19:32.074Z,94514.00
2023-05-12T01:20:32.103Z,94512.00
2023-05-12T01:21:32.051Z,94512.00
2023-05-12T01:22:32.045Z,94514.00
2023-05-12T01:23:32.103Z,94516.00
2023-05-12T01:24:32.052Z,94516.00
2023-05-12T01:25:32.099Z,94512.00
2023-05-12T01:26:32.023Z,94516.00
2023-05-12T01:27:32.019Z,94514.00
2023-05-12T01:28:32.032Z,94516.00
2023-05-12T01:29:32.044Z,94512.00
2023-05-12T01:30:31.984Z,94512.00
2023-05-12T01:31:32.047Z,94514.00
2023-05-12T01:32:32.017Z,94510.00
2023-05-12T01:33:31.978Z,94510.00
2023-05-12T01:34:31.980Z,94510.00
2023-05-12T01:35:31.961Z,94510.00
2023-05-12T01:36:31.926Z,94510.00
2023-05-12T01:37:31.947Z,94510.00
2023-05-12T01:38:31.953Z,94510.00
2023-05-12T01:39:31.965Z,94512.00
2023-05-12T01:40:31.924Z,94508.00
2023-05-12T01:41:31.919Z,94512.00
2023-05-12T01:42:31.935Z,94512.00
2023-05-12T01:43:31.916Z,94512.00
2023-05-12T01:44:31.894Z,94512.00
2023-05-12T01:45:31.876Z,94512.00
2023-05-12T01:46:32.022Z,94512.00
2023-05-12T01:47:31.925Z,94514.00
2023-05-12T01:48:31.828Z,94512.00
2023-05-12T01:49:31.893Z,94514.00
2023-05-12T01:50:31.873Z,94512.00
2023-05-12T01:51:31.854Z,94518.00
2023-05-12T01:52:31.840Z,94516.00
2023-05-12T01:53:31.837Z,94514.00
2023-05-12T01:54:31.846Z,94516.00
2023-05-12T01:55:31.815Z,94516.00
2023-05-12T01:56:31.809Z,94516.00
2023-05-12T01:57:31.791Z,94516.00
2023-05-12T01:58:31.818Z,94518.00
2023-05-12T01:59:31.859Z,94518.00
2023-05-12T02:00:31.841Z,94518.00
2023-05-12T02:01:31.924Z,94524.00
2023-05-12T02:02:31.894Z,94520.00
2023-05-12T02:03:31.995Z,94518.00
2023-05-12T02:04:31.881Z,94520.00
2023-05-12T02:05:31.765Z,94520.00
2023-05-12T02:06:31.769Z,94522.00
2023-05-12T02:07:31.757Z,94520.00
2023-05-12T02:08:31.831Z,94518.00
2023-05-12T02:09:31.766Z,94522.00
2023-05-12T02:10:31.807Z,94520.00
2023-05-12T02:11:31.916Z,94524.00
2023-05-12T02:12:31.817Z,94522.00
2023-05-12T02:13:31.789Z,94522.00
2023-05-12T02:14:31.896Z,94524.00
2023-05-12T02:15:31.782Z,94522.00
2023-05-12T02:16:31.861Z,94522.00
2023-05-12T02:17:31.814Z,94522.00
2023-05-12T02:18:31.877Z,94524.00
2023-05-12T02:19:31.808Z,94524.00
2023-05-12T02:20:31.927Z,94526.00
2023-05-12T02:21:31.824Z,94528.00
2023-05-12T02:22:31.786Z,94526.00
2023-05-12T02:23:31.864Z,94526.00
2023-05-12T02:24:31.848Z,94528.00
2023-05-12T02:25:31.822Z,94526.00
2023-05-12T02:26:31.831Z,94526.00
2023-05-12T02:27:31.789Z,94524.00
2023-05-12T02:28:31.792Z,94524.00
2023-05-12T02:29:31.824Z,94526.00
2023-05-12T02:30:31.839Z,94526.00
2023-05-12T02:31:31.840Z,94524.00
2023-05-12T02:32:31.872Z,94524.00
2023-05-12T02:33:31.822Z,94522.00
2023-05-12T02:34:31.813Z,94522.00
2023-05-12T02:35:31.815Z,94522.00
2023-05-12T02:36:31.855Z,94522.00
2023-05-12T02:37:31.848Z,94522.00
2023-05-12T02:38:31.838Z,94522.00
2023-05-12T02:39:31.842Z,94522.00
2023-05-12T02:40:31.860Z,94522.00
2023-05-12T02:41:31.892Z,94518.00
2023-05-12T02:42:31.822Z,94518.00
2023-05-12T02:43:31.822Z,94518.00
2023-05-12T02:44:31.842Z,94520.00
2023-05-12T02:45:31.848Z,94520.00
2023-05-12T02:46:31.853Z,94520.00
2023-05-12T02:47:31.926Z,94520.00
2023-05-12T02:48:31.829Z,94520.00
2023-05-12T02:49:31.866Z,94520.00
2023-05-12T02:50:31.847Z,94520.00
2023-05-12T02:51:31.900Z,94520.00
2023-05-12T02:52:31.836Z,94518.00
2023-05-12T02:53:31.837Z,94518.00
2023-05-12T02:54:31.849Z,94518.00
2023-05-12T02:55:31.859Z,94516.00
2023-05-12T02:56:33.768Z,94516.00
2023-05-12T02:57:31.890Z,94516.00
2023-05-12T02:58:31.888Z,94516.00
2023-05-12T02:59:31.838Z,94514.00
2023-05-12T03:00:31.897Z,94514.00
2023-05-12T03:01:31.919Z,94514.00
2023-05-12T03:02:31.955Z,94514.00
2023-05-12T03:03:32.035Z,94514.00
2023-05-12T03:04:31.924Z,94514.00
2023-05-12T03:05:31.934Z,94510.00
2023-05-12T03:06:31.932Z,94514.00
2023-05-12T03:07:31.934Z,94514.00
2023-05-12T03:08:31.904Z,94508.00
2023-05-12T03:09:31.905Z,94510.00
2023-05-12T03:10:31.962Z,94508.00
2023-05-12T03:11:31.912Z,94506.00
2023-05-12T03:12:31.919Z,94508.00
2023-05-12T03:13:31.982Z,94508.00
2023-05-12T03:14:31.931Z,94508.00
2023-05-12T03:15:32.408Z,94508.00
2023-05-12T03:16:32.013Z,94508.00
2023-05-12T03:17:32.015Z,94508.00
2023-05-12T03:18:32.134Z,94510.00
2023-05-12T03:19:31.945Z,94512.00
2023-05-12T03:20:31.953Z,94512.00
2023-05-12T03:21:31.952Z,94512.00
2023-05-12T03:22:31.976Z,94512.00
2023-05-12T03:23:31.980Z,94512.00
2023-05-12T03:24:32.064Z,94514.00
2023-05-12T03:25:32.034Z,94512.00
2023-05-12T03:26:31.995Z,94512.00
2023-05-12T03:27:32.077Z,94516.00
2023-05-12T03:28:32.032Z,94518.00
2023-05-12T03:29:32.096Z,94518.00
2023-05-12T03:30:32.045Z,94518.00
2023-05-12T03:31:32.171Z,94520.00
2023-05-12T03:32:32.111Z,94522.00
2023-05-12T03:33:32.130Z,94522.00
2023-05-12T03:34:32.118Z,94520.00
2023-05-12T03:35:32.085Z,94522.00
2023-05-12T03:36:32.140Z,94520.00
2023-05-12T03:37:32.061Z,94522.00
2023-05-12T03:38:32.195Z,94522.00
2023-05-12T03:39:32.116Z,94520.00
2023-05-12T03:40:32.113Z,94518.00
2023-05-12T03:41:32.124Z,94516.00
2023-05-12T03:42:32.103Z,94516.00
2023-05-12T03:43:32.107Z,94514.00
2023-05-12T03:44:32.144Z,94518.00
2023-05-12T03:45:32.103Z,94518.00
2023-05-12T03:46:32.209Z,94518.00
2023-05-12T03:47:32.239Z,94518.00
2023-05-12T03:48:32.119Z,94516.00
2023-05-12T03:49:32.202Z,94516.00
2023-05-12T03:50:32.136Z,94514.00
2023-05-12T03:51:32.117Z,94514.00
2023-05-12T03:52:32.140Z,94512.00
2023-05-12T03:53:32.153Z,94514.00
2023-05-12T03:54:32.156Z,94514.00
2023-05-12T03:55:32.131Z,94514.00
2023-05-12T03:56:32.128Z,94516.00
2023-05-12T03:57:32.149Z,94514.00
2023-05-12T03:58:32.186Z,94510.00
2023-05-12T03:59:32.142Z,94514.00
2023-05-12T04:00:32.114Z,94516.00
2023-05-12T04:01:32.155Z,94514.00
2023-05-12T04:02:32.332Z,94516.00
2023-05-12T04:03:32.272Z,94514.00
2023-05-12T04:04:32.171Z,94510.00
2023-05-12T04:05:32.186Z,94516.00
2023-05-12T04:06:32.206Z,94518.00
2023-05-12T04:07:32.170Z,94518.00
2023-05-12T04:08:32.184Z,94518.00
2023-05-12T04:09:32.185Z,94518.00
2023-05-12T04:10:32.220Z,94518.00
2023-05-12T04:11:32.219Z,94518.00
2023-05-12T04:12:32.199Z,94516.00
2023-05-12T04:13:32.197Z,94518.00
2023-05-12T04:14:42.151Z,94520.00
2023-05-12T04:15:33.216Z,94514.00
2023-05-12T04:16:32.265Z,94518.00
2023-05-12T04:17:32.248Z,94520.00
2023-05-12T04:18:32.251Z,94520.00
2023-05-12T04:19:32.234Z,94520.00
2023-05-12T04:20:32.202Z,94524.00
2023-05-12T04:21:32.261Z,94524.00
2023-05-12T04:22:32.199Z,94524.00
2023-05-12T04:23:32.197Z,94524.00
2023-05-12T04:24:32.866Z,94524.00
2023-05-12T04:25:32.164Z,94524.00
2023-05-12T04:26:32.172Z,94524.00
2023-05-12T04:27:32.171Z,94526.00
2023-05-12T04:28:32.157Z,94522.00
2023-05-12T04:29:32.139Z,94524.00
2023-05-12T04:30:32.121Z,94528.00
2023-05-12T04:31:32.154Z,94530.00
2023-05-12T04:32:32.230Z,94532.00
2023-05-12T04:33:32.130Z,94532.00
2023-05-12T04:34:32.144Z,94532.00
2023-05-12T04:35:32.141Z,94534.00
2023-05-12T04:36:32.102Z,94536.00
2023-05-12T04:37:32.080Z,94534.00
2023-05-12T04:38:32.165Z,94534.00
2023-05-12T04:39:32.111Z,94532.00
2023-05-12T04:40:34.728Z,94530.00
2023-05-12T04:41:32.066Z,94528.00
2023-05-12T04:42:32.099Z,94530.00
2023-05-12T04:44:32.200Z,94532.00
2023-05-12T04:45:32.042Z,94534.00
2023-05-12T04:46:32.096Z,94534.00
2023-05-12T04:47:32.102Z,94534.00
2023-05-12T04:48:32.021Z,94536.00
2023-05-12T04:49:31.975Z,94536.00
2023-05-12T04:50:32.004Z,94536.00
2023-05-12T04:51:32.042Z,94536.00
2023-05-12T04:52:31.994Z,94540.00
2023-05-12T04:53:31.973Z,94536.00
2023-05-12T04:54:32.006Z,94536.00
2023-05-12T04:55:31.982Z,94540.00
2023-05-12T04:56:31.964Z,94540.00
2023-05-12T04:57:31.965Z,94540.00
2023-05-12T04:58:31.989Z,94542.00
2023-05-12T04:59:31.985Z,94542.00
2023-05-12T05:00:31.912Z,94542.00
2023-05-12T05:01:31.994Z,94544.00
2023-05-12T05:02:32.041Z,94542.00
2023-05-12T05:03:32.006Z,94546.00
2023-05-12T05:04:31.912Z,94546.00
2023-05-12T05:05:31.909Z,94546.00
2023-05-12T05:06:31.886Z,94548.00
2023-05-12T05:07:31.918Z,94548.00
2023-05-12T05:08:31.877Z,94548.00
2023-05-12T05:09:33.352Z,94548.00
2023-05-12T05:10:32.020Z,94548.00
2023-05-12T05:11:32.105Z,94548.00
2023-05-12T05:12:32.099Z,94546.00
2023-05-12T05:13:32.099Z,94546.00
2023-05-12T05:14:32.103Z,94546.00
2023-05-12T05:15:32.114Z,94544.00
2023-05-12T05:16:32.132Z,94544.00
2023-05-12T05:17:32.164Z,94546.00
2023-05-12T05:18:32.186Z,94544.00
2023-05-12T05:20:32.599Z,94548.00
2023-05-12T05:21:32.150Z,94548.00
2023-05-12T05:22:32.178Z,94548.00
2023-05-12T05:23:32.099Z,94546.00
2023-05-12T05:24:32.088Z,94546.00
2023-05-12T05:25:32.084Z,94546.00
2023-05-12T05:26:32.072Z,94550.00
2023-05-12T05:27:32.082Z,94550.00
2023-05-12T05:28:32.072Z,94550.00
2023-05-12T05:29:32.050Z,94552.00
2023-05-12T05:30:32.200Z,94553.00
2023-05-12T05:31:32.087Z,94553.00
2023-05-12T05:32:32.014Z,94552.00
2023-05-12T05:33:31.994Z,94552.00
2023-05-12T05:34:32.065Z,94548.00
2023-05-12T05:35:31.998Z,94550.00
2023-05-12T05:36:32.410Z,94546.00
2023-05-12T05:37:32.014Z,94546.00
2023-05-12T05:38:32.027Z,94546.00
2023-05-12T05:39:32.086Z,94546.00
2023-05-12T05:40:41.333Z,94544.00
2023-05-12T05:41:32.989Z,94540.00
2023-05-12T05:42:31.981Z,94540.00
2023-05-12T05:43:31.951Z,94542.00
2023-05-12T05:44:32.026Z,94540.00
2023-05-12T05:45:32.934Z,94538.00
2023-05-12T05:46:32.406Z,94542.00
2023-05-12T05:47:32.494Z,94544.00
2023-05-12T05:48:32.457Z,94544.00
2023-05-12T05:49:31.921Z,94548.00
2023-05-12T05:50:32.466Z,94548.00
2023-05-12T05:51:31.878Z,94548.00
2023-05-12T05:52:32.007Z,94548.00
2023-05-12T05:53:31.869Z,94548.00
2023-05-12T05:54:31.974Z,94544.00
2023-05-12T05:55:31.868Z,94548.00
2023-05-12T05:56:31.963Z,94544.00
2023-05-12T05:57:32.492Z,94520.00
2023-05-12T05:58:32.425Z,94548.00
2023-05-12T05:59:31.962Z,94544.00
2023-05-12T06:00:32.397Z,94546.00
2023-05-12T06:01:31.997Z,94546.00
2023-05-12T06:02:32.096Z,94546.00
2023-05-12T06:03:32.090Z,94548.00
2023-05-12T06:04:32.032Z,94546.00
2023-05-12T06:05:31.975Z,94546.00
2023-05-12T06:06:32.020Z,94548.00
2023-05-12T06:07:32.143Z,94542.00
2023-05-12T06:08:32.180Z,94546.00
2023-05-12T06:09:32.175Z,94552.00
2023-05-12T06:10:32.258Z,94550.00
2023-05-12T06:11:32.341Z,94548.00
2023-05-12T06:12:32.345Z,94553.00
2023-05-12T06:13:32.420Z,94553.00
2023-05-12T06:14:32.445Z,94552.00
2023-05-12T06:15:32.551Z,94552.00
2023-05-12T06:16:32.533Z,94550.00
2023-05-12T06:17:32.882Z,94552.00
2023-05-12T06:18:32.605Z,94550.00
2023-05-12T06:19:32.649Z,94553.00
2023-05-12T06:20:32.610Z,94550.00
2023-05-12T06:21:32.743Z,94552.00
2023-05-12T06:22:34.161Z,94552.00
2023-05-12T06:23:32.680Z,94550.00
2023-05-12T06:24:32.871Z,94555.00
2023-05-12T06:25:32.686Z,94555.00
2023-05-12T06:26:32.700Z,94555.00
2023-05-12T06:27:32.750Z,94555.00
2023-05-12T06:28:32.701Z,94555.00
2023-05-12T06:29:32.673Z,94553.00
2023-05-12T06:30:32.723Z,94555.00
2023-05-12T06:31:32.751Z,94550.00
2023-05-12T06:32:32.869Z,94561.00
2023-05-12T06:33:32.726Z,94553.00
2023-05-12T06:34:32.695Z,94555.00
2023-05-12T06:35:32.719Z,94553.00
2023-05-12T06:36:32.689Z,94552.00
2023-05-12T06:37:32.738Z,94553.00
2023-05-12T06:38:32.878Z,94553.00
2023-05-12T06:39:32.696Z,94552.00
2023-05-12T06:40:32.690Z,94552.00
2023-05-12T06:41:32.689Z,94553.00
2023-05-12T06:42:33.043Z,94552.00
2023-05-12T06:43:33.007Z,94550.00
2023-05-12T06:44:32.728Z,94553.00
2023-05-12T06:45:32.810Z,94553.00
2023-05-12T06:46:32.887Z,94552.00
2023-05-12T06:47:32.924Z,94550.00
2023-05-12T06:48:32.908Z,94553.00
2023-05-12T06:49:34.278Z,94550.00
2023-05-12T06:50:33.112Z,94552.00
2023-05-12T06:51:33.124Z,94552.00
2023-05-12T06:52:33.192Z,94550.00
2023-05-12T06:53:33.253Z,94550.00
2023-05-12T06:54:33.302Z,94550.00
2023-05-12T06:55:33.303Z,94546.00
2023-05-12T06:56:33.323Z,94544.00
2023-05-12T06:57:33.301Z,94544.00
2023-05-12T06:58:33.507Z,94540.00
2023-05-12T06:59:33.525Z,94542.00
2023-05-12T07:00:33.333Z,94544.00
2023-05-12T07:01:33.409Z,94540.00
2023-05-12T07:02:33.973Z,94540.00
2023-05-12T07:03:33.537Z,94542.00
2023-05-12T07:04:33.277Z,94540.00
2023-05-12T07:05:33.556Z,94538.00
2023-05-12T07:06:33.338Z,94540.00
2023-05-12T07:07:33.346Z,94542.00
2023-05-12T07:08:33.350Z,94542.00
2023-05-12T07:09:33.356Z,94534.00
2023-05-12T07:10:33.291Z,94538.00
2023-05-12T07:11:33.430Z,94538.00
2023-05-12T07:12:33.318Z,94538.00
2023-05-12T07:13:33.320Z,94536.00
2023-05-12T07:14:33.318Z,94536.00
2023-05-12T07:15:33.523Z,94536.00
2023-05-12T07:16:33.560Z,94538.00
2023-05-12T07:17:33.394Z,94532.00
2023-05-12T07:18:33.371Z,94530.00
2023-05-12T07:19:33.365Z,94532.00
2023-05-12T07:20:33.363Z,94530.00
2023-05-12T07:21:33.488Z,94532.00
2023-05-12T07:22:35.506Z,94530.00
2023-05-12T07:23:33.380Z,94530.00
2023-05-12T07:24:33.346Z,94530.00
2023-05-12T07:25:33.402Z,94528.00
2023-05-12T07:26:33.377Z,94530.00
2023-05-12T07:27:33.371Z,94526.00
2023-05-12T07:28:33.385Z,94526.00
2023-05-12T07:29:34.972Z,94526.00
2023-05-12T07:30:33.454Z,94524.00
2023-05-12T07:31:33.546Z,94524.00
2023-05-12T07:32:33.436Z,94520.00
2023-05-12T07:33:33.469Z,94524.00
2023-05-12T07:34:33.372Z,94524.00
2023-05-12T07:35:33.351Z,94522.00
2023-05-12T07:36:33.362Z,94522.00
2023-05-12T07:37:33.355Z,94520.00
2023-05-12T07:38:33.267Z,94524.00
2023-05-12T07:39:33.292Z,94522.00
2023-05-12T07:40:33.293Z,94520.00
2023-05-12T07:41:34.491Z,94520.00
2023-05-12T07:42:33.279Z,94516.00
2023-05-12T07:43:33.276Z,94518.00
2023-05-12T07:44:33.692Z,94516.00
2023-05-12T07:45:33.290Z,94516.00
2023-05-12T07:46:33.282Z,94518.00
2023-05-12T07:47:33.339Z,94516.00
2023-05-12T07:48:33.218Z,94518.00
2023-05-12T07:49:33.478Z,94516.00
2023-05-12T07:50:33.394Z,94520.00
2023-05-12T07:51:33.262Z,94520.00
2023-05-12T07:52:34.000Z,94516.00
2023-05-12T07:53:33.420Z,94516.00
2023-05-12T07:54:33.706Z,94516.00
2023-05-12T07:55:33.615Z,94518.00
2023-05-12T07:56:33.471Z,94516.00
2023-05-12T07:57:33.474Z,94514.00
2023-05-12T07:58:33.536Z,94514.00
2023-05-12T07:59:33.609Z,94512.00
2023-05-12T08:00:33.636Z,94514.00
2023-05-12T08:01:33.712Z,94512.00
2023-05-12T08:02:33.807Z,94516.00
2023-05-12T08:03:34.058Z,94510.00
2023-05-12T08:04:34.102Z,94508.00
2023-05-12T08:05:33.883Z,94510.00
2023-05-12T08:06:34.101Z,94512.00
2023-05-12T08:07:33.958Z,94512.00
2023-05-12T08:08:34.003Z,94508.00
2023-05-12T08:09:34.129Z,94508.00
2023-05-12T08:10:34.118Z,94508.00
2023-05-12T08:11:34.122Z,94506.00
2023-05-12T08:12:34.208Z,94508.00
2023-05-12T08:13:34.252Z,94506.00
2023-05-12T08:14:34.261Z,94510.00
2023-05-12T08:15:34.334Z,94508.00
2023-05-12T08:16:34.467Z,94510.00
2023-05-12T08:17:34.660Z,94508.00
2023-05-12T08:18:34.643Z,94504.00
2023-05-12T08:19:34.452Z,94506.00
2023-05-12T08:20:34.764Z,94506.00
2023-05-12T08:21:35.972Z,94506.00
2023-05-12T08:22:34.669Z,94506.00
2023-05-12T08:23:34.622Z,94506.00
2023-05-12T08:24:34.612Z,94506.00
2023-05-12T08:25:35.526Z,94502.00
2023-05-12T08:26:35.168Z,94502.00
2023-05-12T08:27:34.863Z,94500.00
2023-05-12T08:28:35.300Z,94498.00
2023-05-12T08:29:34.968Z,94500.00
2023-05-12T08:30:35.289Z,94498.00
2023-05-12T08:31:35.298Z,94498.00
2023-05-12T08:32:35.211Z,94500.00
2023-05-12T08:33:35.083Z,94497.00
2023-05-12T08:34:35.101Z,94497.00
2023-05-12T08:35:35.055Z,94493.00
2023-05-12T08:36:35.049Z,94493.00
2023-05-12T08:37:35.208Z,94495.00
2023-05-12T08:38:35.162Z,94493.00
2023-05-12T08:39:35.198Z,94497.00
2023-05-12T08:40:35.250Z,94497.00
2023-05-12T08:41:35.385Z,94493.00
2023-05-12T08:42:35.378Z,94491.00
2023-05-12T08:43:35.425Z,94493.00
2023-05-12T08:44:35.506Z,94493.00
2023-05-12T08:45:35.586Z,94495.00
2023-05-12T08:46:35.720Z,94497.00
2023-05-12T08:47:36.055Z,94497.00
2023-05-12T08:48:35.570Z,94497.00
2023-05-12T08:49:36.075Z,94497.00
2023-05-12T08:50:35.585Z,94497.00
2023-05-12T08:51:35.947Z,94497.00
2023-05-12T08:52:35.648Z,94495.00
2023-05-12T08:53:36.665Z,94495.00
2023-05-12T08:54:42.447Z,94491.00
2023-05-12T08:55:36.672Z,94495.00
2023-05-12T08:57:37.460Z,94493.00
2023-05-12T08:58:41.056Z,94495.00
2023-05-12T08:59:36.713Z,94495.00
2023-05-12T09:00:36.019Z,94497.00
2023-05-12T09:01:36.912Z,94497.00
2023-05-12T09:02:51.369Z,94497.00
2023-05-12T09:03:37.563Z,94495.00
2023-05-12T09:04:35.704Z,94495.00
2023-05-12T09:05:35.676Z,94495.00
2023-05-12T09:06:35.643Z,94493.00
2023-05-12T09:07:35.640Z,94495.00
2023-05-12T09:08:35.662Z,94495.00
2023-05-12T09:09:35.644Z,94493.00
2023-05-12T09:10:35.968Z,94495.00
2023-05-12T09:11:35.613Z,94493.00
2023-05-12T09:12:35.618Z,94493.00
2023-05-12T09:13:35.632Z,94495.00
2023-05-12T09:14:35.569Z,94493.00
2023-05-12T09:15:35.588Z,94493.00
2023-05-12T09:16:35.632Z,94493.00
2023-05-12T09:17:35.623Z,94491.00
2023-05-12T09:18:35.667Z,94489.00
2023-05-12T09:19:35.581Z,94491.00
2023-05-12T09:20:35.649Z,94489.00
2023-05-12T09:21:35.690Z,94491.00
2023-05-12T09:22:35.749Z,94485.00
2023-05-12T09:23:35.788Z,94483.00
2023-05-12T09:24:35.833Z,94483.00
2023-05-12T09:25:35.831Z,94485.00
2023-05-12T09:26:35.864Z,94487.00
2023-05-12T09:27:36.053Z,94487.00
2023-05-12T09:28:35.943Z,94489.00
2023-05-12T09:29:45.050Z,94487.00
2023-05-12T09:30:37.037Z,94487.00
2023-05-12T09:31:36.036Z,94487.00
2023-05-12T09:32:36.392Z,94487.00
2023-05-12T09:33:37.220Z,94485.00
2023-05-12T09:34:36.113Z,94483.00
2023-05-12T09:35:36.451Z,94483.00
2023-05-12T09:36:35.891Z,94485.00
2023-05-12T09:37:35.893Z,94483.00
2023-05-12T09:38:35.905Z,94485.00
2023-05-12T09:39:35.872Z,94485.00
2023-05-12T09:40:35.853Z,94487.00
2023-05-12T09:41:35.878Z,94485.00
2023-05-12T09:42:35.842Z,94485.00
2023-05-12T09:43:36.051Z,94489.00
2023-05-12T09:44:35.845Z,94491.00
2023-05-12T09:45:35.915Z,94493.00
2023-05-12T09:46:35.862Z,94491.00
2023-05-12T09:47:35.872Z,94489.00
2023-05-12T09:48:35.931Z,94491.00
2023-05-12T09:49:35.917Z,94487.00
2023-05-12T09:50:46.556Z,94491.00
2023-05-12T09:51:36.857Z,94487.00
2023-05-12T09:52:35.833Z,94485.00
2023-05-12T09:53:35.836Z,94489.00
2023-05-12T09:54:35.872Z,94485.00
2023-05-12T09:55:35.833Z,94487.00
2023-05-12T09:56:37.472Z,94483.00
2023-05-12T09:57:35.857Z,94485.00
2023-05-12T09:58:35.853Z,94483.00
2023-05-12T09:59:35.888Z,94483.00
2023-05-12T10:00:58.544Z,94483.00
2023-05-12T10:01:36.959Z,94477.00
2023-05-12T10:02:36.001Z,94481.00
2023-05-12T10:03:36.030Z,94479.00
2023-05-12T10:04:35.953Z,94479.00
2023-05-12T10:05:35.920Z,94477.00
2023-05-12T10:06:35.877Z,94475.00
2023-05-12T10:07:35.897Z,94469.00
2023-05-12T10:08:35.905Z,94467.00
2023-05-12T10:09:35.917Z,94469.00
2023-05-12T10:10:35.891Z,94463.00
2023-05-12T10:11:35.901Z,94463.00
2023-05-12T10:12:35.894Z,94459.00
2023-05-12T10:13:35.944Z,94459.00
2023-05-12T10:14:35.981Z,94461.00
2023-05-12T10:15:37.383Z,94461.00
2023-05-12T10:16:36.090Z,94459.00
2023-05-12T10:17:37.070Z,94457.00
2023-05-12T10:18:36.265Z,94459.00
2023-05-12T10:19:36.236Z,94457.00
2023-05-12T10:20:36.257Z,94463.00
2023-05-12T10:21:36.192Z,94463.00
2023-05-12T10:22:36.254Z,94461.00
2023-05-12T10:23:37.890Z,94459.00
2023-05-12T10:24:36.312Z,94457.00
2023-05-12T10:25:36.327Z,94457.00
2023-05-12T10:26:36.379Z,94457.00
2023-05-12T10:27:36.524Z,94461.00
2023-05-12T10:28:36.444Z,94455.00
2023-05-12T10:29:36.519Z,94461.00
2023-05-12T10:30:36.506Z,94463.00
2023-05-12T10:31:36.542Z,94463.00
2023-05-12T10:32:36.553Z,94457.00
2023-05-12T10:33:36.585Z,94457.00
2023-05-12T10:34:36.615Z,94455.00
2023-05-12T10:35:36.604Z,94459.00
2023-05-12T10:36:36.552Z,94459.00
2023-05-12T10:37:36.549Z,94457.00
2023-05-12T10:38:36.570Z,94459.00
2023-05-12T10:39:36.628Z,94459.00
2023-05-12T10:40:36.571Z,94459.00
2023-05-12T10:41:36.648Z,94463.00
2023-05-12T10:42:36.685Z,94461.00
2023-05-12T10:43:36.767Z,94457.00
2023-05-12T10:44:36.878Z,94457.00
2023-05-12T10:45:37.017Z,94453.00
2023-05-12T10:46:36.964Z,94455.00
2023-05-12T10:47:37.086Z,94455.00
2023-05-12T10:48:37.011Z,94451.00
2023-05-12T10:49:37.100Z,94450.00
2023-05-12T10:50:37.186Z,94451.00
2023-05-12T10:51:37.161Z,94451.00
2023-05-12T10:52:37.230Z,94450.00
2023-05-12T10:53:48.289Z,94450.00
2023-05-12T10:54:38.250Z,94448.00
2023-05-12T10:55:37.322Z,94446.00
2023-05-12T10:56:37.518Z,94448.00
2023-05-12T10:57:37.519Z,94444.00
2023-05-12T10:58:37.688Z,94446.00
2023-05-12T10:59:37.807Z,94442.00
2023-05-12T11:00:37.780Z,94444.00
2023-05-12T11:02:38.384Z,94442.00
2023-05-12T11:03:38.301Z,94444.00
2023-05-12T11:04:37.484Z,94442.00
2023-05-12T11:05:37.780Z,94440.00
2023-05-12T11:06:37.632Z,94438.00
2023-05-12T11:07:37.524Z,94444.00
2023-05-12T11:08:37.854Z,94442.00
2023-05-12T11:09:40.715Z,94442.00
2023-05-12T11:10:38.907Z,94438.00
2023-05-12T11:12:37.412Z,94434.00
2023-05-12T11:13:37.273Z,94436.00
2023-05-12T11:14:37.278Z,94436.00
2023-05-12T11:15:37.632Z,94436.00
2023-05-12T11:16:37.409Z,94436.00
2023-05-12T11:17:37.631Z,94436.00
2023-05-12T11:18:37.448Z,94434.00
2023-05-12T11:19:37.417Z,94438.00
2023-05-12T11:20:37.573Z,94432.00
2023-05-12T11:21:37.465Z,94438.00
2023-05-12T11:22:37.477Z,94436.00
2023-05-12T11:23:37.428Z,94434.00
2023-05-12T11:24:37.425Z,94432.00
2023-05-12T11:25:37.537Z,94432.00
2023-05-12T11:26:37.458Z,94432.00
2023-05-12T11:27:37.460Z,94432.00
2023-05-12T11:28:37.474Z,94432.00
2023-05-12T11:29:37.484Z,94428.00
2023-05-12T11:30:37.497Z,94432.00
2023-05-12T11:31:37.545Z,94430.00
2023-05-12T11:32:37.590Z,94430.00
2023-05-12T11:33:37.573Z,94428.00
2023-05-12T11:34:37.611Z,94426.00
2023-05-12T11:35:37.677Z,94426.00
2023-05-12T11:36:37.727Z,94426.00
2023-05-12T11:37:37.789Z,94422.00
2023-05-12T11:38:37.895Z,94420.00
2023-05-12T11:39:37.947Z,94422.00
2023-05-12T11:40:37.974Z,94418.00
2023-05-12T11:41:38.076Z,94420.00
2023-05-12T11:42:38.125Z,94418.00
2023-05-12T11:43:38.181Z,94418.00
2023-05-12T11:44:38.253Z,94420.00
2023-05-12T11:45:38.316Z,94418.00
2023-05-12T11:46:38.358Z,94418.00
2023-05-12T11:47:38.560Z,94416.00
2023-05-12T11:48:38.459Z,94418.00
2023-05-12T11:49:38.472Z,94416.00